Main page
METAR-TAF:

METAR-TAF

Airports :

Zaragoza, Spain

Zaragoza Airport

latitude: 41-40N, longitude: 001-01W, elevation: 263 m

Current weather observation

The report was made 21 minutes ago, at 16:30 UTC
Wind 2 kt from the East
Temperature 33°C
Humidity 28%
Pressure 1012 hPa
Visibility 10 km or more
Few clouds at a height of 5000 ft

METAR: LEZG 221630Z 09002KT 9999 FEW050 33/12 Q1012

Time: 18:51 (16:51 UTC)

Forecast

The report was made 5 hours and 51 minutes ago, at 11:00 UTC
Forecast valid from 22 at 12 UTC to 23 at 12 UTC
Wind 4 kt from variable directions
Visibility 10 km or more
Few clouds at a height of 5000 ft
Probability 40% :
Temporary
from 22 at 12 UTC to 22 at 21 UTC
Visibility: 4000 m
Few clouds at a height of 4000 ft, Cumulonimbus.
rain showers
Becoming
from 22 at 20 UTC to 22 at 22 UTC
Wind 15 kt from the West/Northwest with gusts up to 25 kt

TAF: LEZG 221100Z 2212/2312 VRB04KT 9999 FEW050 TX34/2215Z TN16/2305Z PROB40 TEMPO 2212/2221 4000 SHRA FEW040CB BECMG 2220/2222 30015G25KT

Weather observations and forecasts of more than 4000 airports (METAR and TAF reports).

The available stations are represented by yellow and red dots on the map.

Hover mouse over dot to see the name of the station.

Then click to see weather observations and forecasts.

To change the map : click on the green buttons with a black cross to zoom in, on the green button with a dash to zoom out, or on the green arrows for adjacent maps.


METAR-TAF: